»·PEaware :: DAL518 KSLC-KLAS

DAL518 :: KSLC-KLAS

FLIGHT INFORMATION

Flight Status: Arrived
Operator:
Delta Air Lines
More flights by this operator :: More flights under this callsign
Pilot: Drew L. (13237)
Aircraft: AIRBUS A320
(A320)
More flights by this aircraft type
Origin: KSLC Salt Lake City Intl
United States
Destination: KLAS McCarran Intl
United States
More flights between these airports :: More routes between these airports
Route: EDETH5 MLF MPIRE SITEE2
File this flight plan on PilotEdge
Remarks: PBN / A1B1C1D1O1S1 DOF / 171205 REG / N320SB EET / KZLA0031 OPR / DAL PER / C RMK / TCAS SIMBRIEF
Altitude:
(Current/Filed)
32,000ft
Speed:
(Current/Filed)
437kts
Departed: 04-Dec-17 06:49 PM
Arrived: 04-Dec-17 07:47 PM
Distance/Time
Traveled:
319nm/0:58
Distance/Time
To Go:
Arrived

Flight Plot

Page will automatically refresh every two minutes.

Flight plan parsing failed; only flown route is shown


Map Options




Map Legend


Flown Route
Filed Route
Departure Airport
Arrival Airport
Navaid (VOR, NDB)
Fix

Horizontal Profiles

Position Reports

Time Latitude Longitude Heading Altitude Ground
Speed
04-Dec-17 18:16 40.787770 -111.977792 276 4236ft 0kts
04-Dec-17 18:17 40.787770 -111.977792 276 4236ft 0kts
04-Dec-17 18:18 40.787770 -111.977792 276 4236ft 0kts
04-Dec-17 18:19 40.787770 -111.977792 276 4236ft 0kts
04-Dec-17 18:20 40.787770 -111.977792 276 4236ft 0kts
04-Dec-17 18:21 40.787770 -111.977792 276 4236ft 0kts
04-Dec-17 18:22 40.787770 -111.977792 276 4236ft 0kts
04-Dec-17 18:23 40.787770 -111.977792 276 4236ft 0kts
04-Dec-17 18:24 40.787770 -111.977792 276 4236ft 0kts
04-Dec-17 18:25 40.787770 -111.977792 276 4236ft 0kts
04-Dec-17 18:26 40.787770 -111.977792 276 4236ft 0kts
04-Dec-17 18:27 40.787770 -111.977792 276 4236ft 0kts
04-Dec-17 18:28 40.787770 -111.977792 276 4236ft 0kts
04-Dec-17 18:29 40.787770 -111.977792 276 4236ft 0kts
04-Dec-17 18:30 40.787770 -111.977792 276 4236ft 0kts
04-Dec-17 18:31 40.787770 -111.977792 276 4236ft 0kts
04-Dec-17 18:32 40.787770 -111.977792 276 4236ft 0kts
04-Dec-17 18:33 40.787770 -111.977792 276 4236ft 0kts
04-Dec-17 18:34 40.787770 -111.977792 276 4236ft 0kts
04-Dec-17 18:35 40.787770 -111.977792 276 4236ft 0kts
04-Dec-17 18:36 40.787770 -111.977792 276 4236ft 0kts
04-Dec-17 18:37 40.787770 -111.977792 276 4236ft 0kts
04-Dec-17 18:38 40.787770 -111.977792 276 4236ft 0kts
04-Dec-17 18:39 40.787770 -111.977792 276 4236ft 0kts
04-Dec-17 18:40 40.787770 -111.977792 276 4236ft 0kts
04-Dec-17 18:41 40.787770 -111.977792 276 4236ft 0kts
04-Dec-17 18:42 40.787770 -111.977792 276 4236ft 0kts
04-Dec-17 18:43 40.787770 -111.977792 276 4236ft 0kts
04-Dec-17 18:44 40.787770 -111.977792 276 4236ft 0kts
04-Dec-17 18:45 40.787770 -111.977792 276 4236ft 0kts
04-Dec-17 18:46 40.787770 -111.977791 276 4236ft 0kts
04-Dec-17 18:47 40.787760 -111.977177 245 4236ft 2kts
04-Dec-17 18:48 40.788156 -111.976874 173 4236ft 1kts
04-Dec-17 18:49 40.788170 -111.976877 173 4236ft 0kts
04-Dec-17 18:50 40.788170 -111.976877 173 4236ft 0kts
04-Dec-17 18:51 40.786328 -111.976693 176 4236ft 23kts
04-Dec-17 18:52 40.779328 -111.975692 159 4236ft 23kts
04-Dec-17 18:53 40.774731 -111.973671 40 4236ft 13kts
04-Dec-17 18:54 40.804662 -111.976629 344 5296ft 197kts
04-Dec-17 18:55 40.822654 -112.031233 278 9502ft 202kts
04-Dec-17 18:56 40.828258 -112.116738 264 12418ft 260kts
04-Dec-17 18:57 40.811186 -112.210645 255 15862ft 276kts
04-Dec-17 18:58 40.746244 -112.275969 198 18301ft 332kts
04-Dec-17 18:59 40.652954 -112.297430 190 21031ft 350kts
04-Dec-17 19:00 40.555296 -112.313680 192 23031ft 360kts
04-Dec-17 19:01 40.455609 -112.334582 192 24438ft 369kts
04-Dec-17 19:02 40.353484 -112.355897 193 26490ft 380kts
04-Dec-17 19:03 40.256894 -112.415209 211 27787ft 402kts
04-Dec-17 19:04 40.154881 -112.487188 211 28707ft 432kts
04-Dec-17 19:05 40.046274 -112.563609 211 29503ft 456kts
04-Dec-17 19:06 39.934328 -112.642036 211 30938ft 458kts
04-Dec-17 19:07 39.831091 -112.714146 210 32046ft 458kts
04-Dec-17 19:08 39.719226 -112.792022 210 32064ft 457kts
04-Dec-17 19:09 39.595868 -112.831904 188 32063ft 465kts
04-Dec-17 19:10 39.467809 -112.850860 188 32055ft 464kts
04-Dec-17 19:11 39.339840 -112.869888 188 32054ft 464kts
04-Dec-17 19:12 39.211911 -112.888843 188 32063ft 465kts
04-Dec-17 19:13 39.083731 -112.907760 188 32072ft 465kts
04-Dec-17 19:14 38.955837 -112.926565 188 32075ft 465kts
04-Dec-17 19:15 38.846521 -112.942583 188 32072ft 465kts
04-Dec-17 19:16 38.718373 -112.961302 188 32069ft 465kts
04-Dec-17 19:17 38.590206 -112.979957 188 32067ft 465kts
04-Dec-17 19:18 38.462262 -112.998511 188 32067ft 465kts
04-Dec-17 19:19 38.335910 -113.028558 207 32073ft 461kts
04-Dec-17 19:20 38.221415 -113.098773 208 32078ft 459kts
04-Dec-17 19:21 38.106547 -113.169140 208 32060ft 458kts
04-Dec-17 19:22 37.992220 -113.238957 208 32056ft 458kts
04-Dec-17 19:23 37.877646 -113.308692 208 32060ft 458kts
04-Dec-17 19:24 37.763186 -113.378113 208 32062ft 458kts
04-Dec-17 19:25 37.648681 -113.447326 208 32065ft 458kts
04-Dec-17 19:26 37.533854 -113.516492 208 32067ft 458kts
04-Dec-17 19:27 37.419297 -113.585254 208 32069ft 458kts
04-Dec-17 19:28 37.305578 -113.653285 207 32069ft 458kts
04-Dec-17 19:29 37.192103 -113.720935 207 31639ft 458kts
04-Dec-17 19:30 37.077637 -113.788948 207 29162ft 460kts
04-Dec-17 19:31 36.962981 -113.856836 207 26431ft 453kts
04-Dec-17 19:32 36.851740 -113.922465 207 24019ft 437kts
04-Dec-17 19:33 36.744820 -113.985370 208 21628ft 421kts
04-Dec-17 19:34 36.641164 -114.046174 208 19218ft 406kts
04-Dec-17 19:35 36.555315 -114.124396 240 16807ft 380kts
04-Dec-17 19:36 36.499870 -114.232932 240 14518ft 364kts
04-Dec-17 19:37 36.446946 -114.336056 240 12618ft 340kts
04-Dec-17 19:38 36.399794 -114.427610 241 11954ft 290kts
04-Dec-17 19:39 36.345354 -114.501682 217 10689ft 327kts
04-Dec-17 19:40 36.274492 -114.560335 218 9981ft 284kts
04-Dec-17 19:41 36.212144 -114.612124 218 9045ft 265kts
04-Dec-17 19:42 36.153275 -114.661062 218 7903ft 256kts
04-Dec-17 19:43 36.098552 -114.706344 219 7795ft 221kts
04-Dec-17 19:44 36.073493 -114.764622 273 7660ft 190kts
04-Dec-17 19:45 36.073543 -114.823866 273 6591ft 168kts
04-Dec-17 19:46 36.073576 -114.871580 273 5837ft 168kts
04-Dec-17 19:47 36.074188 -114.925782 273 4998ft 165kts
04-Dec-17 19:48 36.073926 -114.980973 273 4444ft 165kts
04-Dec-17 19:49 36.073820 -115.032284 274 3651ft 130kts
04-Dec-17 19:50 36.073753 -115.075220 274 2982ft 124kts
04-Dec-17 19:51 36.073696 -115.116956 275 2336ft 123kts
04-Dec-17 19:52 36.073655 -115.146793 272 2150ft 27kts
04-Dec-17 19:53 36.074811 -115.150731 304 2150ft 5kts
04-Dec-17 19:54 36.077401 -115.152539 335 2150ft 0kts
04-Dec-17 19:55 36.077962 -115.152554 52 2150ft 8kts
04-Dec-17 19:56 36.080546 -115.151149 359 2150ft 15kts
04-Dec-17 19:57 36.082228 -115.151053 11 2150ft 0kts

Navigation Log

Ident Type
Flight plan parsing failed, navigation log unavailable